Time;durP1;ratioP1;P1;durP2;ratioP2;P2;SDS_P1;SDS_P2;PMS_P1;PMS_P2;Temp;Humidity;BMP_temperature;BMP_pressure;BME280_temperature;BME280_humidity;BME280_pressure;Samples;Min_cycle;Max_cycle;Signal;HPM_P1;HPM_P2
2022/07/25 00:01:16;;;;;;;14.13;9.02;;;;;;;;;;4877966;29;20095;-79
2022/07/25 00:03:42;;;;;;;12.45;9.25;;;;;;;;;;4892013;29;20049;-79
2022/07/25 00:06:08;;;;;;;14.55;9.68;;;;;;;;;;4871873;29;20049;-79
2022/07/25 00:08:34;;;;;;;13.55;10.00;;;;;;;;;;4864182;29;20140;-79
2022/07/25 00:11:00;;;;;;;16.55;9.65;;;;;;;;;;4862114;29;20135;-80
2022/07/25 00:13:25;;;;;;;18.23;9.80;;;;;;;;;;4878634;29;20064;-80
2022/07/25 00:15:51;;;;;;;19.92;10.55;;;;;;;;;;4861890;29;20537;-78
2022/07/25 00:18:17;;;;;;;22.50;10.20;;;;;;;;;;4878401;29;20067;-78
2022/07/25 00:20:43;;;;;;;12.75;10.10;;;;;;;;;;4878210;29;20052;-80
2022/07/25 00:23:08;;;;;;;13.82;9.98;;;;;;;;;;4877898;29;20045;-80
2022/07/25 00:25:35;;;;;;;19.35;11.25;;;;;;;;;;4877457;29;20051;-79
2022/07/25 00:28:00;;;;;;;19.27;9.95;;;;;;;;;;4878086;29;20085;-80
2022/07/25 00:30:26;;;;;;;16.20;9.77;;;;;;;;;;4861492;29;20085;-79
2022/07/25 00:32:52;;;;;;;18.30;10.00;;;;;;;;;;4878141;29;20124;-79
2022/07/25 00:35:18;;;;;;;21.95;10.40;;;;;;;;;;4877844;29;20507;-80
2022/07/25 00:37:43;;;;;;;12.95;9.85;;;;;;;;;;4878196;29;20068;-79
2022/07/25 00:40:10;;;;;;;14.15;10.52;;;;;;;;;;4877872;29;20057;-80
2022/07/25 00:42:37;;;;;;;17.75;11.05;;;;;;;;;;4878118;29;20070;-80
2022/07/25 00:45:03;;;;;;;12.20;9.77;;;;;;;;;;4861574;29;20045;-80
2022/07/25 00:47:29;;;;;;;11.23;10.02;;;;;;;;;;4877781;29;20177;-79
2022/07/25 00:49:55;;;;;;;12.48;10.13;;;;;;;;;;4877749;29;20134;-80
2022/07/25 00:52:23;;;;;;;12.77;10.50;;;;;;;;;;4877796;29;20033;-80
2022/07/25 00:54:49;;;;;;;17.45;9.90;;;;;;;;;;4877810;29;20052;-79
2022/07/25 00:57:15;;;;;;;11.95;9.75;;;;;;;;;;4877544;29;20037;-80
2022/07/25 00:59:41;;;;;;;15.02;10.05;;;;;;;;;;4877481;29;20057;-79
2022/07/25 01:02:07;;;;;;;10.95;9.90;;;;;;;;;;4860582;29;20049;-80
2022/07/25 01:04:33;;;;;;;18.05;10.38;;;;;;;;;;4877078;29;20065;-79
2022/07/25 01:06:59;;;;;;;16.50;10.05;;;;;;;;;;4860793;29;20060;-79
2022/07/25 01:09:25;;;;;;;11.00;9.55;;;;;;;;;;4877093;29;20040;-78
2022/07/25 01:11:51;;;;;;;10.27;9.27;;;;;;;;;;4862248;29;20520;-80
2022/07/25 01:14:17;;;;;;;11.50;9.35;;;;;;;;;;4883447;29;20483;-81
2022/07/25 01:16:43;;;;;;;17.40;9.32;;;;;;;;;;4884920;29;20056;-81
2022/07/25 01:19:08;;;;;;;16.25;10.85;;;;;;;;;;4867478;29;20514;-82
2022/07/25 01:21:36;;;;;;;12.43;10.23;;;;;;;;;;4886078;29;20075;-80
2022/07/25 01:24:02;;;;;;;15.95;10.30;;;;;;;;;;4888053;29;20506;-80
2022/07/25 01:26:29;;;;;;;16.52;10.10;;;;;;;;;;4882056;29;20105;-79
2022/07/25 01:28:55;;;;;;;22.48;10.93;;;;;;;;;;4881927;29;20456;-80
2022/07/25 01:31:21;;;;;;;14.82;10.25;;;;;;;;;;4882540;29;20045;-80
2022/07/25 01:33:47;;;;;;;16.20;10.07;;;;;;;;;;4880673;29;20100;-79
2022/07/25 01:36:13;;;;;;;15.93;10.50;;;;;;;;;;4878814;29;20075;-80
2022/07/25 01:38:39;;;;;;;11.30;10.30;;;;;;;;;;4880225;29;20045;-79
2022/07/25 01:41:05;;;;;;;23.77;11.70;;;;;;;;;;4865617;29;20049;-81
2022/07/25 01:43:31;;;;;;;12.95;9.95;;;;;;;;;;4883497;29;20040;-79
2022/07/25 01:45:57;;;;;;;12.98;9.98;;;;;;;;;;4890991;29;20051;-81
2022/07/25 01:48:23;;;;;;;22.40;10.68;;;;;;;;;;4891578;29;20108;-80
2022/07/25 01:50:49;;;;;;;13.10;10.30;;;;;;;;;;4869599;29;20451;-78
2022/07/25 01:53:15;;;;;;;16.75;10.00;;;;;;;;;;4885426;29;20068;-80
2022/07/25 01:55:40;;;;;;;18.58;10.75;;;;;;;;;;4898489;29;20048;-79
2022/07/25 01:58:06;;;;;;;17.95;10.00;;;;;;;;;;4883041;29;20426;-78
2022/07/25 02:00:32;;;;;;;24.38;11.10;;;;;;;;;;4880435;29;20064;-80
2022/07/25 02:05:42;;;;;;;20.27;10.43;;;;;;;;;;4863549;29;20060;-79
2022/07/25 02:08:08;;;;;;;16.77;10.80;;;;;;;;;;4880040;29;20053;-80
2022/07/25 02:10:34;;;;;;;16.17;9.88;;;;;;;;;;4863457;29;20426;-80
2022/07/25 02:13:00;;;;;;;13.05;9.45;;;;;;;;;;4879430;29;20037;-79
2022/07/25 02:15:46;;;;;;;14.30;8.63;;;;;;;;;;4864920;29;20551;-79
2022/07/25 02:18:12;;;;;;;16.30;9.55;;;;;;;;;;4878564;29;20044;-80
2022/07/25 02:20:38;;;;;;;17.40;10.77;;;;;;;;;;4861247;29;20057;-80
2022/07/25 02:23:04;;;;;;;17.83;10.35;;;;;;;;;;4861467;29;20083;-80
2022/07/25 02:25:30;;;;;;;11.50;9.50;;;;;;;;;;4861347;29;20049;-81
2022/07/25 02:27:57;;;;;;;13.85;9.35;;;;;;;;;;4877792;29;20076;-80
2022/07/25 02:30:23;;;;;;;24.17;9.85;;;;;;;;;;4877576;29;20518;-79
2022/07/25 02:32:49;;;;;;;20.00;10.77;;;;;;;;;;4876948;29;20118;-81
2022/07/25 02:35:14;;;;;;;15.30;9.27;;;;;;;;;;4877309;29;20101;-80
2022/07/25 02:37:40;;;;;;;13.90;9.07;;;;;;;;;;4876510;29;20052;-80
2022/07/25 02:40:07;;;;;;;21.95;9.73;;;;;;;;;;4876267;29;20132;-80
2022/07/25 02:42:33;;;;;;;16.48;10.80;;;;;;;;;;4876168;29;20544;-79
2022/07/25 02:44:58;;;;;;;12.90;11.15;;;;;;;;;;4876165;29;20041;-77
2022/07/25 02:47:24;;;;;;;15.30;9.23;;;;;;;;;;4875958;29;20045;-80
2022/07/25 02:49:50;;;;;;;14.98;9.80;;;;;;;;;;4861581;29;20478;-79
2022/07/25 02:52:16;;;;;;;15.27;11.05;;;;;;;;;;4879998;29;20076;-79
2022/07/25 02:54:42;;;;;;;16.42;10.20;;;;;;;;;;4879661;29;20041;-78
2022/07/25 02:57:08;;;;;;;18.10;11.05;;;;;;;;;;4879589;29;20048;-80
2022/07/25 02:59:34;;;;;;;16.92;9.60;;;;;;;;;;4879545;29;20136;-79
2022/07/25 03:02:00;;;;;;;15.05;10.30;;;;;;;;;;4882382;29;20061;-79
2022/07/25 03:04:25;;;;;;;16.02;10.27;;;;;;;;;;4890241;29;20061;-79
2022/07/25 03:06:51;;;;;;;14.63;11.35;;;;;;;;;;4863219;29;20059;-80
2022/07/25 03:09:18;;;;;;;17.73;11.73;;;;;;;;;;4863491;29;20041;-79
2022/07/25 03:11:44;;;;;;;12.85;11.18;;;;;;;;;;4863415;29;20048;-80
2022/07/25 03:14:10;;;;;;;16.98;11.23;;;;;;;;;;4879867;29;20052;-81
2022/07/25 03:16:35;;;;;;;22.15;11.50;;;;;;;;;;4879141;29;20429;-79
2022/07/25 03:19:01;;;;;;;18.13;11.70;;;;;;;;;;4879032;29;20041;-78
2022/07/25 03:21:27;;;;;;;13.73;12.20;;;;;;;;;;4878999;29;20056;-78
2022/07/25 03:23:53;;;;;;;22.48;11.60;;;;;;;;;;4879143;29;20076;-79
2022/07/25 03:26:19;;;;;;;14.30;11.13;;;;;;;;;;4878837;29;20080;-78
2022/07/25 03:28:45;;;;;;;14.32;11.15;;;;;;;;;;4878839;29;20045;-78
2022/07/25 03:31:11;;;;;;;14.18;11.20;;;;;;;;;;4878826;29;20059;-79
2022/07/25 03:33:37;;;;;;;19.92;10.88;;;;;;;;;;4878755;29;20422;-79
2022/07/25 03:36:03;;;;;;;14.65;10.95;;;;;;;;;;4862177;29;20553;-80
2022/07/25 03:38:29;;;;;;;12.10;11.10;;;;;;;;;;4878707;29;20041;-78
2022/07/25 03:40:54;;;;;;;14.15;10.98;;;;;;;;;;4862198;29;20550;-79
2022/07/25 03:43:20;;;;;;;23.08;11.50;;;;;;;;;;4862762;29;20041;-79
2022/07/25 03:45:46;;;;;;;13.10;10.77;;;;;;;;;;4891823;29;20041;-80
2022/07/25 03:48:12;;;;;;;16.20;11.70;;;;;;;;;;4888245;29;20043;-80
2022/07/25 03:50:38;;;;;;;16.08;9.88;;;;;;;;;;4880660;29;20511;-80
2022/07/25 03:53:03;;;;;;;11.20;9.98;;;;;;;;;;4879176;29;20067;-78
2022/07/25 03:55:29;;;;;;;10.90;9.82;;;;;;;;;;4861954;29;20063;-78
2022/07/25 03:57:55;;;;;;;10.75;9.65;;;;;;;;;;4878799;29;20037;-80
2022/07/25 04:00:21;;;;;;;14.00;9.82;;;;;;;;;;4878581;29;20186;-80
2022/07/25 04:02:47;;;;;;;15.02;10.43;;;;;;;;;;4861911;29;20128;-78
2022/07/25 04:05:13;;;;;;;15.85;10.35;;;;;;;;;;4878782;29;20053;-78
2022/07/25 04:07:39;;;;;;;16.83;10.30;;;;;;;;;;4861240;29;20439;-78
2022/07/25 04:10:05;;;;;;;12.90;10.23;;;;;;;;;;4878139;29;20120;-77
2022/07/25 04:12:31;;;;;;;11.07;9.85;;;;;;;;;;4877834;29;20143;-79
2022/07/25 04:14:57;;;;;;;10.70;9.57;;;;;;;;;;4878093;29;20045;-78
2022/07/25 04:17:23;;;;;;;11.65;10.55;;;;;;;;;;4861008;29;20513;-79
2022/07/25 04:19:49;;;;;;;11.70;10.52;;;;;;;;;;4878005;29;20096;-77
2022/07/25 04:22:15;;;;;;;11.77;10.38;;;;;;;;;;4877640;29;20407;-77
2022/07/25 04:24:41;;;;;;;11.05;9.95;;;;;;;;;;4877831;29;20120;-78
2022/07/25 04:27:07;;;;;;;14.65;10.25;;;;;;;;;;4877078;29;20064;-77
2022/07/25 04:29:32;;;;;;;10.50;9.60;;;;;;;;;;4876289;29;20698;-77
2022/07/25 04:31:59;;;;;;;14.38;10.65;;;;;;;;;;4877819;29;20528;-78
2022/07/25 04:34:25;;;;;;;12.18;10.50;;;;;;;;;;4876383;29;20406;-78
2022/07/25 04:36:51;;;;;;;14.88;9.73;;;;;;;;;;4877637;29;20056;-76
2022/07/25 04:39:16;;;;;;;18.67;9.77;;;;;;;;;;4881116;29;20052;-78
2022/07/25 04:41:42;;;;;;;11.45;9.88;;;;;;;;;;4880241;29;20116;-78
2022/07/25 04:44:08;;;;;;;26.20;9.98;;;;;;;;;;4881069;29;20055;-78
2022/07/25 04:46:34;;;;;;;15.27;9.70;;;;;;;;;;4891521;29;20061;-76
2022/07/25 04:49:00;;;;;;;10.07;9.07;;;;;;;;;;4888530;29;20537;-77
2022/07/25 04:51:26;;;;;;;11.07;8.57;;;;;;;;;;4877481;29;20049;-78
2022/07/25 04:53:52;;;;;;;12.20;9.93;;;;;;;;;;4877586;29;20053;-77
2022/07/25 04:56:18;;;;;;;11.48;10.43;;;;;;;;;;4860820;29;20541;-79
2022/07/25 04:58:44;;;;;;;10.40;9.40;;;;;;;;;;4876990;29;20049;-77
2022/07/25 05:01:10;;;;;;;10.68;9.45;;;;;;;;;;4877419;29;20056;-77
2022/07/25 05:03:36;;;;;;;9.73;8.82;;;;;;;;;;4876815;29;20429;-79
2022/07/25 05:06:02;;;;;;;9.38;8.48;;;;;;;;;;4860634;29;20109;-78
2022/07/25 05:08:28;;;;;;;9.88;8.93;;;;;;;;;;4876702;29;20426;-77
2022/07/25 05:10:54;;;;;;;13.30;8.25;;;;;;;;;;4877095;29;20052;-78
2022/07/25 05:13:20;;;;;;;8.70;7.68;;;;;;;;;;4876512;29;20049;-78
2022/07/25 05:15:46;;;;;;;10.15;7.78;;;;;;;;;;4876756;29;20052;-78
2022/07/25 05:18:11;;;;;;;9.13;7.82;;;;;;;;;;4876922;29;20053;-76
2022/07/25 05:20:37;;;;;;;9.93;8.65;;;;;;;;;;4876911;29;20057;-77
2022/07/25 05:23:03;;;;;;;8.32;7.63;;;;;;;;;;4876720;29;20532;-77
2022/07/25 05:25:29;;;;;;;11.48;8.43;;;;;;;;;;4875427;29;20290;-76
2022/07/25 05:27:57;;;;;;;10.02;7.68;;;;;;;;;;4876642;29;20202;-78
2022/07/25 05:30:23;;;;;;;8.85;7.93;;;;;;;;;;4876919;29;20055;-78
2022/07/25 05:32:49;;;;;;;10.52;8.70;;;;;;;;;;4876822;29;20044;-78
2022/07/25 05:35:15;;;;;;;10.18;9.18;;;;;;;;;;4860693;29;20510;-77
2022/07/25 05:37:41;;;;;;;12.15;7.90;;;;;;;;;;4892871;29;20141;-76
2022/07/25 05:40:07;;;;;;;9.65;7.88;;;;;;;;;;4878570;29;20195;-78
2022/07/25 05:42:33;;;;;;;7.40;6.80;;;;;;;;;;4875214;29;20053;-78
2022/07/25 05:44:59;;;;;;;8.70;6.97;;;;;;;;;;4876474;29;20045;-77
2022/07/25 05:47:25;;;;;;;16.33;7.22;;;;;;;;;;4875380;29;20398;-77
2022/07/25 05:49:51;;;;;;;14.52;7.43;;;;;;;;;;4876174;29;20105;-75
2022/07/25 05:52:16;;;;;;;12.57;8.80;;;;;;;;;;4876466;29;20136;-76
2022/07/25 05:54:42;;;;;;;9.10;7.60;;;;;;;;;;4876165;29;20534;-77
2022/07/25 05:57:08;;;;;;;7.40;6.80;;;;;;;;;;4876273;29;20488;-76
2022/07/25 05:59:34;;;;;;;8.20;6.50;;;;;;;;;;4843821;29;20407;-78
2022/07/25 06:02:00;;;;;;;8.68;7.82;;;;;;;;;;4876035;29;20201;-77
2022/07/25 06:04:26;;;;;;;7.20;6.47;;;;;;;;;;4876307;29;20080;-76
2022/07/25 06:06:52;;;;;;;7.55;6.78;;;;;;;;;;4875920;29;20059;-78
2022/07/25 06:09:19;;;;;;;7.57;5.82;;;;;;;;;;4876078;29;20150;-77
2022/07/25 06:11:46;;;;;;;7.13;6.53;;;;;;;;;;4859655;29;20418;-78
2022/07/25 06:14:11;;;;;;;13.98;6.38;;;;;;;;;;4876025;29;20049;-75
2022/07/25 06:16:37;;;;;;;6.35;5.80;;;;;;;;;;4859389;29;20053;-77
2022/07/25 06:19:03;;;;;;;7.43;6.22;;;;;;;;;;4875931;29;20051;-77
2022/07/25 06:21:29;;;;;;;7.05;5.85;;;;;;;;;;4859161;29;20049;-77
2022/07/25 06:23:55;;;;;;;10.10;6.00;;;;;;;;;;4860831;29;20509;-77
2022/07/25 06:26:23;;;;;;;6.25;5.65;;;;;;;;;;4881561;29;20052;-77
2022/07/25 06:28:49;;;;;;;10.23;5.38;;;;;;;;;;4879483;29;20044;-77
2022/07/25 06:31:16;;;;;;;9.23;5.47;;;;;;;;;;4879984;29;20121;-77
2022/07/25 06:33:42;;;;;;;6.40;5.63;;;;;;;;;;4879530;29;20060;-77
2022/07/25 06:36:08;;;;;;;5.60;5.10;;;;;;;;;;4879828;29;20049;-77
2022/07/25 06:38:34;;;;;;;6.22;5.32;;;;;;;;;;4862743;29;20131;-76
2022/07/25 06:41:00;;;;;;;5.72;5.00;;;;;;;;;;4878371;29;20132;-79
2022/07/25 06:43:26;;;;;;;6.07;5.47;;;;;;;;;;4879551;29;20045;-78
2022/07/25 06:45:53;;;;;;;7.43;5.10;;;;;;;;;;4879323;29;20037;-77
2022/07/25 06:48:19;;;;;;;5.18;4.68;;;;;;;;;;4879534;29;20132;-78
2022/07/25 06:50:45;;;;;;;9.45;8.50;;;;;;;;;;4879607;29;20522;-76
2022/07/25 06:53:11;;;;;;;6.18;5.43;;;;;;;;;;4879332;29;20100;-78
2022/07/25 06:55:37;;;;;;;9.05;5.45;;;;;;;;;;4878348;29;20457;-78
2022/07/25 06:58:03;;;;;;;4.80;4.40;;;;;;;;;;4879158;29;20068;-77
2022/07/25 07:00:29;;;;;;;5.97;5.38;;;;;;;;;;4879410;29;20084;-77
2022/07/25 07:02:56;;;;;;;5.72;4.82;;;;;;;;;;4878825;29;20048;-78
2022/07/25 07:05:22;;;;;;;10.93;8.50;;;;;;;;;;4879073;29;20068;-77
2022/07/25 07:07:48;;;;;;;9.80;5.20;;;;;;;;;;4878918;29;20053;-76
2022/07/25 07:10:14;;;;;;;8.80;5.28;;;;;;;;;;4879245;29;20056;-78
2022/07/25 07:12:40;;;;;;;9.70;5.35;;;;;;;;;;4878907;29;20033;-77
2022/07/25 07:15:06;;;;;;;8.23;5.30;;;;;;;;;;4878995;29;20433;-77
2022/07/25 07:17:32;;;;;;;6.63;4.35;;;;;;;;;;4878936;29;20055;-77
2022/07/25 07:19:58;;;;;;;5.97;5.07;;;;;;;;;;4879005;29;20045;-77
2022/07/25 07:22:24;;;;;;;8.82;5.40;;;;;;;;;;4878717;29;20082;-79
2022/07/25 07:24:50;;;;;;;5.75;5.07;;;;;;;;;;4862563;29;20049;-77
2022/07/25 07:27:16;;;;;;;5.28;4.88;;;;;;;;;;4866429;29;20052;-78
2022/07/25 07:29:42;;;;;;;10.18;5.25;;;;;;;;;;4894545;29;20041;-78
2022/07/25 07:32:08;;;;;;;5.88;4.97;;;;;;;;;;4879520;29;20052;-76
2022/07/25 07:34:34;;;;;;;6.22;5.50;;;;;;;;;;4878435;29;20426;-80
2022/07/25 07:37:01;;;;;;;6.47;5.50;;;;;;;;;;4879263;29;20560;-78
2022/07/25 07:39:27;;;;;;;7.32;5.50;;;;;;;;;;4878915;29;20040;-78
2022/07/25 07:41:53;;;;;;;11.05;7.55;;;;;;;;;;4862459;29;20053;-77
2022/07/25 07:44:19;;;;;;;6.18;5.57;;;;;;;;;;4862865;29;20051;-78
2022/07/25 07:46:45;;;;;;;6.90;5.90;;;;;;;;;;4886322;29;20051;-78
2022/07/25 07:49:11;;;;;;;9.02;5.28;;;;;;;;;;4886960;29;20061;-78
2022/07/25 07:51:37;;;;;;;9.48;5.43;;;;;;;;;;4880049;29;20068;-77
2022/07/25 07:56:48;;;;;;;6.65;5.10;;;;;;;;;;4878344;29;20076;-77
2022/07/25 07:59:13;;;;;;;6.10;5.60;;;;;;;;;;4878646;29;20661;-78
2022/07/25 08:01:39;;;;;;;6.72;5.60;;;;;;;;;;4878257;29;20446;-78
2022/07/25 08:04:06;;;;;;;5.95;5.55;;;;;;;;;;4878081;29;20053;-77
2022/07/25 08:06:32;;;;;;;7.95;5.90;;;;;;;;;;4880392;29;20045;-78
2022/07/25 08:08:58;;;;;;;9.57;5.60;;;;;;;;;;4878493;29;20044;-78
2022/07/25 08:11:25;;;;;;;10.57;5.20;;;;;;;;;;4878380;29;20045;-79
2022/07/25 08:13:51;;;;;;;5.75;5.25;;;;;;;;;;4877924;29;20211;-79
2022/07/25 08:16:17;;;;;;;5.80;5.40;;;;;;;;;;4878224;29;20607;-77
2022/07/25 08:18:43;;;;;;;5.93;5.35;;;;;;;;;;4861010;29;20116;-78
2022/07/25 08:21:09;;;;;;;9.15;5.68;;;;;;;;;;4877699;29;20053;-77
2022/07/25 08:23:37;;;;;;;6.15;5.70;;;;;;;;;;4877785;29;20033;-77
2022/07/25 08:26:03;;;;;;;12.10;6.32;;;;;;;;;;4845656;29;20045;-77
2022/07/25 08:28:29;;;;;;;6.65;6.15;;;;;;;;;;4877416;29;20116;-78
2022/07/25 08:30:55;;;;;;;10.45;6.22;;;;;;;;;;4877200;29;20068;-78
2022/07/25 08:33:21;;;;;;;6.18;5.75;;;;;;;;;;4877581;29;20060;-77
2022/07/25 08:35:47;;;;;;;10.00;6.03;;;;;;;;;;4877628;29;20045;-77
2022/07/25 08:38:13;;;;;;;6.38;5.65;;;;;;;;;;4877810;29;20136;-78
2022/07/25 08:40:39;;;;;;;6.30;5.70;;;;;;;;;;4877511;29;20136;-78
2022/07/25 08:43:05;;;;;;;6.28;5.07;;;;;;;;;;4877521;29;20131;-78
2022/07/25 08:45:31;;;;;;;5.72;5.18;;;;;;;;;;4860842;29;20045;-78
2022/07/25 08:47:57;;;;;;;6.25;5.65;;;;;;;;;;4859673;29;20041;-78
2022/07/25 08:50:24;;;;;;;7.47;6.10;;;;;;;;;;4877332;29;20041;-78
2022/07/25 08:52:50;;;;;;;6.25;5.65;;;;;;;;;;4875739;29;20056;-78
2022/07/25 08:55:18;;;;;;;6.75;5.50;;;;;;;;;;4875896;29;20053;-78
2022/07/25 08:57:45;;;;;;;10.52;5.70;;;;;;;;;;4877111;29;20055;-79
2022/07/25 09:00:12;;;;;;;10.98;6.03;;;;;;;;;;4877221;29;20526;-79
2022/07/25 09:02:38;;;;;;;6.57;5.97;;;;;;;;;;4877170;29;20056;-78
2022/07/25 09:05:04;;;;;;;6.50;5.78;;;;;;;;;;4876787;29;20064;-77
2022/07/25 09:07:34;;;;;;;6.43;5.93;;;;;;;;;;4877086;29;20374;-78
2022/07/25 09:10:16;;;;;;;6.53;5.88;;;;;;;;;;4876932;29;20136;-78
2022/07/25 09:12:49;;;;;;;11.23;5.88;;;;;;;;;;4876887;29;20105;-77
2022/07/25 09:15:22;;;;;;;6.13;5.63;;;;;;;;;;4877125;29;20522;-78
2022/07/25 09:17:48;;;;;;;6.55;5.97;;;;;;;;;;4877185;29;20048;-77
2022/07/25 09:20:15;;;;;;;6.25;5.72;;;;;;;;;;4875383;29;20132;-79
2022/07/25 09:22:42;;;;;;;6.03;5.63;;;;;;;;;;4879704;29;20063;-79
2022/07/25 09:25:18;;;;;;;7.07;6.03;;;;;;;;;;4877114;29;20140;-77
2022/07/25 09:27:44;;;;;;;8.13;6.43;;;;;;;;;;4876744;29;20071;-77
2022/07/25 09:30:13;;;;;;;7.13;6.13;;;;;;;;;;4876896;29;20049;-80
2022/07/25 09:32:39;;;;;;;;;;;;;;;;;;4877085;29;20471;-78
2022/07/25 09:35:05;;;;;;;6.45;5.90;;;;;;;;;;4876468;29;19915;-79
2022/07/25 09:37:32;;;;;;;6.63;6.10;;;;;;;;;;4876481;29;20045;-78
2022/07/25 09:39:58;;;;;;;7.75;6.95;;;;;;;;;;4875028;29;20112;-78
2022/07/25 09:42:25;;;;;;;6.93;5.60;;;;;;;;;;4876373;29;20064;-78
2022/07/25 09:44:57;;;;;;;9.75;6.05;;;;;;;;;;4876326;29;20105;-79
2022/07/25 09:47:23;;;;;;;10.43;6.38;;;;;;;;;;4877552;29;20049;-77
2022/07/25 09:49:49;;;;;;;8.25;6.80;;;;;;;;;;4876886;29;20045;-78
2022/07/25 09:52:16;;;;;;;8.57;6.57;;;;;;;;;;4876700;29;20148;-79
2022/07/25 09:54:42;;;;;;;7.47;6.38;;;;;;;;;;4876033;29;20542;-80
2022/07/25 09:57:08;;;;;;;7.10;6.50;;;;;;;;;;4876456;29;20548;-79
2022/07/25 09:59:34;;;;;;;6.75;6.03;;;;;;;;;;4876292;29;20081;-78
2022/07/25 10:02:10;;;;;;;9.30;6.32;;;;;;;;;;4876060;29;20056;-78
2022/07/25 10:04:40;;;;;;;8.88;5.85;;;;;;;;;;4859690;29;20057;-78
2022/07/25 10:07:11;;;;;;;7.18;6.40;;;;;;;;;;4859433;29;20150;-79
2022/07/25 10:09:49;;;;;;;6.78;6.10;;;;;;;;;;4876152;29;20183;-80
2022/07/25 10:12:18;;;;;;;6.80;6.20;;;;;;;;;;4876177;29;20106;-78
2022/07/25 10:15:01;;;;;;;6.32;5.75;;;;;;;;;;4876037;29;20045;-82
2022/07/25 10:17:28;;;;;;;7.68;6.38;;;;;;;;;;4860167;29;20045;-79
2022/07/25 10:19:54;;;;;;;6.68;6.18;;;;;;;;;;4875884;29;20426;-78
2022/07/25 10:22:20;;;;;;;9.95;7.43;;;;;;;;;;4875979;29;20061;-77
2022/07/25 10:24:46;;;;;;;8.07;5.93;;;;;;;;;;4875845;29;20045;-77
2022/07/25 10:27:13;;;;;;;7.20;6.40;;;;;;;;;;4874979;29;20064;-79
2022/07/25 10:29:39;;;;;;;8.45;5.47;;;;;;;;;;4875719;29;20048;-78
2022/07/25 10:32:09;;;;;;;6.50;5.70;;;;;;;;;;4859005;29;20052;-78
2022/07/25 10:34:35;;;;;;;6.03;5.50;;;;;;;;;;4875915;29;20124;-78
2022/07/25 10:37:08;;;;;;;6.47;5.80;;;;;;;;;;4875847;29;20124;-79
2022/07/25 10:39:37;;;;;;;5.88;5.47;;;;;;;;;;4859122;29;20059;-78
2022/07/25 10:42:03;;;;;;;6.35;5.85;;;;;;;;;;4876678;29;20053;-78
2022/07/25 10:44:42;;;;;;;6.57;5.35;;;;;;;;;;4875574;29;20475;-78
2022/07/25 10:47:09;;;;;;;5.70;5.22;;;;;;;;;;4877032;29;20466;-77
2022/07/25 10:49:35;;;;;;;5.60;5.10;;;;;;;;;;4887001;29;20064;-79
2022/07/25 10:52:02;;;;;;;6.60;5.90;;;;;;;;;;4888367;29;20044;-79
2022/07/25 10:54:32;;;;;;;7.70;5.50;;;;;;;;;;4880024;29;20041;-79
2022/07/25 10:56:58;;;;;;;5.93;5.43;;;;;;;;;;4876227;29;20515;-77
2022/07/25 10:59:42;;;;;;;5.70;5.40;;;;;;;;;;4858944;29;20045;-78
2022/07/25 11:02:14;;;;;;;6.07;5.38;;;;;;;;;;4859181;29;20438;-78
2022/07/25 11:04:44;;;;;;;8.88;4.10;;;;;;;;;;4874596;29;20049;-79
2022/07/25 11:07:11;;;;;;;5.60;5.13;;;;;;;;;;4875883;29;20060;-77
2022/07/25 11:09:37;;;;;;;5.97;5.38;;;;;;;;;;4862545;29;20037;-80
2022/07/25 11:12:03;;;;;;;6.10;5.60;;;;;;;;;;4894584;29;20051;-79
2022/07/25 11:14:33;;;;;;;6.68;5.57;;;;;;;;;;4878619;29;20049;-79
2022/07/25 11:17:09;;;;;;;6.55;5.95;;;;;;;;;;4879222;29;20178;-78
2022/07/25 11:19:34;;;;;;;6.53;5.95;;;;;;;;;;4879289;29;20173;-79
2022/07/25 11:22:05;;;;;;;6.35;5.28;;;;;;;;;;4878721;29;20578;-78
2022/07/25 11:24:40;;;;;;;5.88;5.32;;;;;;;;;;4862683;29;20040;-78
2022/07/25 11:27:06;;;;;;;5.97;5.57;;;;;;;;;;4878803;29;20049;-78
